createdAt,value
2019-02-24T00:03:39.590Z,15.93
2019-02-24T00:08:43.131Z,10.57
2019-02-24T00:13:46.627Z,11.67
2019-02-24T00:18:50.028Z,13.97
2019-02-24T00:23:52.918Z,12.83
2019-02-24T00:28:56.167Z,12.07
2019-02-24T00:33:59.367Z,13.63
2019-02-24T00:39:03.072Z,13.47
2019-02-24T00:44:06.485Z,15.23
2019-02-24T00:49:09.995Z,15.90
2019-02-24T00:54:13.579Z,16.07
2019-02-24T00:59:16.436Z,13.63
2019-02-24T01:04:19.704Z,14.43
2019-02-24T01:09:23.313Z,15.70
2019-02-24T01:14:26.855Z,15.00
2019-02-24T01:19:30.428Z,12.73
2019-02-24T01:24:34.020Z,17.90
2019-02-24T01:29:37.450Z,19.50
2019-02-24T01:34:40.613Z,16.27
2019-02-24T01:39:44.246Z,18.10
2019-02-24T01:44:47.142Z,18.67
2019-02-24T01:49:50.351Z,17.13
2019-02-24T01:54:53.294Z,13.20
2019-02-24T01:59:56.795Z,16.30
2019-02-24T02:05:00.287Z,20.33
2019-02-24T02:10:04.007Z,13.50
2019-02-24T02:15:09.175Z,18.53
2019-02-24T02:20:12.464Z,14.00
2019-02-24T02:25:15.317Z,17.53
2019-02-24T02:30:18.229Z,15.10
2019-02-24T02:35:21.865Z,21.80
2019-02-24T02:40:25.343Z,16.70
2019-02-24T02:45:28.285Z,17.90
2019-02-24T02:50:31.654Z,18.30
2019-02-24T02:55:34.845Z,19.60
2019-02-24T03:00:37.900Z,15.73
2019-02-24T03:05:45.655Z,19.70
2019-02-24T03:10:48.922Z,18.57
2019-02-24T03:15:51.948Z,23.30
2019-02-24T03:20:55.139Z,17.10
2019-02-24T03:25:58.334Z,19.70
2019-02-24T03:31:01.535Z,17.23
2019-02-24T03:36:04.457Z,21.80
2019-02-24T03:41:07.927Z,23.00
2019-02-24T03:46:11.521Z,20.50
2019-02-24T03:51:14.975Z,22.60
2019-02-24T03:56:17.896Z,19.90
2019-02-24T04:01:20.813Z,20.13
2019-02-24T04:06:24.387Z,24.77
2019-02-24T04:11:27.439Z,22.80
2019-02-24T04:16:30.495Z,25.70
2019-02-24T04:21:33.703Z,32.60
2019-02-24T04:26:36.611Z,20.23
2019-02-24T04:31:39.516Z,20.03
2019-02-24T04:36:42.761Z,19.70
2019-02-24T04:41:45.659Z,20.63
2019-02-24T04:46:48.866Z,28.13
2019-02-24T04:51:52.019Z,22.07
2019-02-24T04:56:55.290Z,27.23
2019-02-24T05:01:58.813Z,20.13
2019-02-24T05:07:02.060Z,32.20
2019-02-24T05:12:05.306Z,21.90
2019-02-24T05:17:08.558Z,25.80
2019-02-24T05:22:11.407Z,26.27
2019-02-24T05:27:15.017Z,22.33
2019-02-24T05:32:17.644Z,25.20
2019-02-24T05:37:20.533Z,27.47
2019-02-24T05:42:24.125Z,23.07
2019-02-24T05:47:26.995Z,24.80
2019-02-24T05:52:30.200Z,21.33
2019-02-24T05:57:33.615Z,26.50
2019-02-24T06:02:37.116Z,23.23
2019-02-24T06:07:40.344Z,29.07
2019-02-24T06:12:43.594Z,28.90
2019-02-24T06:17:46.896Z,26.67
2019-02-24T06:22:50.113Z,21.70
2019-02-24T06:27:53.562Z,29.10
2019-02-24T06:32:56.773Z,32.60
2019-02-24T06:37:59.706Z,26.23
2019-02-24T06:43:02.884Z,26.90
2019-02-24T06:48:06.385Z,24.30
2019-02-24T06:53:09.645Z,28.30
2019-02-24T06:58:12.837Z,25.63
2019-02-24T07:03:15.355Z,31.57
2019-02-24T07:08:18.826Z,28.63
2019-02-24T07:13:22.044Z,29.43
2019-02-24T07:18:25.279Z,32.10
2019-02-24T07:23:28.197Z,33.50
2019-02-24T07:28:31.723Z,30.83
2019-02-24T07:33:34.924Z,29.70
2019-02-24T07:38:37.848Z,30.20
2019-02-24T07:43:40.698Z,34.07
2019-02-24T07:48:43.875Z,34.13
2019-02-24T07:53:47.135Z,31.10
2019-02-24T07:58:50.343Z,31.27
2019-02-24T08:03:53.149Z,28.83
2019-02-24T08:08:56.045Z,33.40
2019-02-24T08:13:59.578Z,33.27
2019-02-24T08:19:02.469Z,30.73
2019-02-24T08:24:06.204Z,28.40
2019-02-24T08:29:09.377Z,30.53
2019-02-24T08:34:12.408Z,32.37
2019-02-24T08:39:15.717Z,32.93
2019-02-24T08:44:18.927Z,31.23
2019-02-24T08:49:22.476Z,31.67
2019-02-24T08:54:25.780Z,33.77
2019-02-24T08:59:29.481Z,27.37
2019-02-24T09:04:32.692Z,33.13
2019-02-24T09:09:35.953Z,31.27
2019-02-24T09:14:39.186Z,26.30
2019-02-24T09:19:42.412Z,34.90
2019-02-24T09:24:45.783Z,31.47
2019-02-24T09:29:48.511Z,30.17
2019-02-24T09:34:51.746Z,33.83
2019-02-24T09:39:55.272Z,34.03
2019-02-24T09:44:58.544Z,33.03
2019-02-24T09:50:02.081Z,33.50
2019-02-24T09:55:05.722Z,32.83
2019-02-24T10:00:09.555Z,30.23
2019-02-24T10:05:12.866Z,31.10
2019-02-24T10:10:16.060Z,35.10
2019-02-24T10:15:19.372Z,28.83
2019-02-24T10:20:22.855Z,31.30
2019-02-24T10:25:26.186Z,31.93
2019-02-24T10:30:29.094Z,32.40
2019-02-24T10:35:32.655Z,31.73
2019-02-24T10:40:35.327Z,36.67
2019-02-24T10:45:38.219Z,32.20
2019-02-24T10:50:41.140Z,31.17
2019-02-24T10:55:46.591Z,35.13
2019-02-24T11:00:50.321Z,31.53
2019-02-24T11:05:53.880Z,32.50
2019-02-24T11:10:57.140Z,31.63
2019-02-24T11:16:00.577Z,31.53
2019-02-24T11:21:04.186Z,31.97
2019-02-24T11:26:07.411Z,33.63
2019-02-24T11:31:10.601Z,32.23
2019-02-24T11:36:14.352Z,32.43
2019-02-24T11:41:17.230Z,31.00
2019-02-24T11:46:20.416Z,31.23
2019-02-24T11:51:23.637Z,35.50
2019-02-24T11:56:26.845Z,28.77
2019-02-24T12:01:30.348Z,31.53
2019-02-24T12:06:33.268Z,31.03
2019-02-24T12:11:36.843Z,28.80
2019-02-24T12:16:40.231Z,31.00
2019-02-24T12:21:43.519Z,34.23
2019-02-24T12:26:46.752Z,37.57
2019-02-24T12:31:56.383Z,35.83
2019-02-24T12:36:55.052Z,37.00
2019-02-24T12:41:58.385Z,43.83
2019-02-24T12:47:01.900Z,55.20
2019-02-24T12:52:05.351Z,38.30
2019-02-24T12:57:08.929Z,29.07
2019-02-24T13:02:12.736Z,34.20
2019-02-24T13:07:15.986Z,34.00
2019-02-24T13:12:19.549Z,31.23
2019-02-24T13:17:23.236Z,29.63
2019-02-24T13:22:26.547Z,31.93
2019-02-24T13:27:29.455Z,30.70
2019-02-24T13:32:32.430Z,40.27
2019-02-24T13:37:34.960Z,35.73
2019-02-24T13:42:38.228Z,36.40
2019-02-24T13:47:41.626Z,34.23
2019-02-24T13:52:44.455Z,44.23
2019-02-24T13:57:47.915Z,37.30
2019-02-24T14:02:51.512Z,25.47
2019-02-24T14:07:54.486Z,26.57
2019-02-24T14:12:58.985Z,23.60
2019-02-24T14:18:02.319Z,29.33
2019-02-24T14:23:05.582Z,29.03
2019-02-24T14:28:08.870Z,34.70
2019-02-24T14:33:11.818Z,31.17
2019-02-24T14:38:15.013Z,29.90
2019-02-24T14:43:17.920Z,35.30
2019-02-24T14:48:20.188Z,35.03
2019-02-24T14:53:25.246Z,33.50
2019-02-24T14:58:28.143Z,30.17
2019-02-24T15:03:30.926Z,31.40
2019-02-24T15:08:34.168Z,32.67
2019-02-24T15:13:37.426Z,31.40
2019-02-24T15:18:40.507Z,31.63
2019-02-24T15:23:43.291Z,36.47
2019-02-24T15:28:46.878Z,33.23
2019-02-24T15:33:50.125Z,33.63
2019-02-24T15:38:53.547Z,37.60
2019-02-24T15:43:56.855Z,40.43
2019-02-24T15:48:59.384Z,36.43
2019-02-24T15:54:02.955Z,40.80
2019-02-24T15:59:06.672Z,35.83
2019-02-24T16:04:10.313Z,47.03
2019-02-24T16:09:13.901Z,49.43
2019-02-24T16:14:17.213Z,37.30
2019-02-24T16:19:20.579Z,39.33
2019-02-24T16:24:23.987Z,37.23
2019-02-24T16:29:27.363Z,41.00
2019-02-24T16:34:30.916Z,37.23
2019-02-24T16:39:34.249Z,38.90
2019-02-24T16:44:37.625Z,40.73
2019-02-24T16:49:41.194Z,38.67
2019-02-24T16:54:52.490Z,43.30
2019-02-24T16:59:50.349Z,48.70
2019-02-24T17:04:53.735Z,34.07
2019-02-24T17:09:57.435Z,44.37
2019-02-24T17:15:01.599Z,42.67
2019-02-24T17:20:06.427Z,40.80
2019-02-24T17:25:18.156Z,37.83
2019-02-24T17:30:23.652Z,54.43
2019-02-24T17:35:27.561Z,45.00
2019-02-24T17:40:32.721Z,42.10
2019-02-24T17:45:36.723Z,38.80
2019-02-24T17:50:40.337Z,40.63
2019-02-24T17:55:44.723Z,35.57
2019-02-24T18:01:00.031Z,37.63
2019-02-24T18:06:03.668Z,39.77
2019-02-24T18:11:09.951Z,36.77
2019-02-24T18:16:14.650Z,43.37
2019-02-24T18:21:19.139Z,37.60
2019-02-24T18:26:23.483Z,47.93
2019-02-24T18:31:27.754Z,42.40
2019-02-24T18:36:32.828Z,45.20
2019-02-24T18:41:38.004Z,45.93
2019-02-24T18:46:41.348Z,42.53
2019-02-24T18:51:45.352Z,39.87
2019-02-24T18:56:49.964Z,44.03
2019-02-24T19:01:56.372Z,53.40
2019-02-24T19:07:02.864Z,51.27
2019-02-24T19:12:10.440Z,43.90
2019-02-24T19:17:17.974Z,56.60
2019-02-24T19:22:25.754Z,83.67
2019-02-24T19:27:32.639Z,87.73
2019-02-24T19:32:40.189Z,75.90
2019-02-24T19:37:46.418Z,56.53
2019-02-24T19:42:52.342Z,58.83
2019-02-24T19:47:58.737Z,52.13
2019-02-24T19:53:05.198Z,69.00
2019-02-24T19:58:10.469Z,70.10
2019-02-24T20:03:15.278Z,71.77
2019-02-24T20:08:23.163Z,60.10
2019-02-24T20:13:30.962Z,60.97
2019-02-24T20:18:38.660Z,52.03
2019-02-24T20:23:44.963Z,54.93
2019-02-24T20:28:51.876Z,58.27
2019-02-24T20:33:59.584Z,51.80
2019-02-24T20:39:06.938Z,50.90
2019-02-24T20:44:12.469Z,60.47
2019-02-24T20:49:15.971Z,63.33
2019-02-24T20:54:21.387Z,56.57
2019-02-24T20:59:25.474Z,54.83
2019-02-24T21:04:29.314Z,56.37
2019-02-24T21:09:33.148Z,48.37
2019-02-24T21:14:36.620Z,51.07
2019-02-24T21:19:40.710Z,45.43
2019-02-24T21:24:44.818Z,46.33
2019-02-24T21:29:50.102Z,49.33
2019-02-24T21:34:53.678Z,48.33
2019-02-24T21:39:57.211Z,49.50
2019-02-24T21:45:00.447Z,51.00
2019-02-24T21:50:03.843Z,55.40
2019-02-24T21:55:07.425Z,51.23
2019-02-24T22:00:12.832Z,53.70
2019-02-24T22:05:16.389Z,54.00
2019-02-24T22:10:20.011Z,63.50
2019-02-24T22:15:23.213Z,53.93
2019-02-24T22:20:26.434Z,50.23
2019-02-24T22:25:29.711Z,47.13
2019-02-24T22:30:34.352Z,51.33
2019-02-24T22:35:37.667Z,53.63
2019-02-24T22:40:40.514Z,55.53
2019-02-24T22:45:44.212Z,50.43
2019-02-24T22:50:47.090Z,64.47
2019-02-24T22:55:50.631Z,54.50
2019-02-24T23:00:59.426Z,49.63
2019-02-24T23:06:03.058Z,52.10
2019-02-24T23:11:08.216Z,47.57
2019-02-24T23:16:11.217Z,56.57
2019-02-24T23:21:13.827Z,50.17
2019-02-24T23:26:17.320Z,56.57
2019-02-24T23:31:20.968Z,54.77
2019-02-24T23:36:23.656Z,47.27
2019-02-24T23:41:26.959Z,59.83
2019-02-24T23:46:30.155Z,59.20
2019-02-24T23:51:33.695Z,64.37
2019-02-24T23:56:36.992Z,68.57
